Time;durP1;ratioP1;P1;durP2;ratioP2;P2;SDS_P1;SDS_P2;PMS_P1;PMS_P2;Temp;Humidity;BMP_temperature;BMP_pressure;BME280_temperature;BME280_humidity;BME280_pressure;Samples;Min_cycle;Max_cycle;Signal;HPM_P1;HPM_P2
2022/02/07 00:01:55;;;;;;;8.20;2.50;;;5.70;99.90;;;;;;5073670;28;20490;-69
2022/02/07 00:04:27;;;;;;;14.77;3.93;;;5.60;99.90;;;;;;5073751;28;20823;-68
2022/02/07 00:06:53;;;;;;;13.70;4.00;;;5.60;99.90;;;;;;5073757;28;20871;-68
2022/02/07 00:09:20;;;;;;;14.73;2.40;;;5.50;99.90;;;;;;5073689;28;20472;-67
2022/02/07 00:11:47;;;;;;;13.23;1.73;;;5.50;99.90;;;;;;5073748;28;20456;-69
2022/02/07 00:14:15;;;;;;;4.63;1.60;;;5.30;99.90;;;;;;5073632;28;20480;-67
2022/02/07 00:16:43;;;;;;;8.93;1.97;;;5.30;99.90;;;;;;5073384;28;20455;-68
2022/02/07 00:19:17;;;;;;;7.03;1.70;;;5.30;99.90;;;;;;5073670;28;20436;-67
2022/02/07 00:21:45;;;;;;;5.77;1.47;;;5.20;99.90;;;;;;5073591;28;20468;-67
2022/02/07 00:24:12;;;;;;;7.33;3.17;;;5.20;99.90;;;;;;5073235;28;20502;-68
2022/02/07 00:26:38;;;;;;;6.57;3.90;;;5.10;99.90;;;;;;5073529;28;20447;-68
2022/02/07 00:29:05;;;;;;;6.47;2.63;;;5.10;99.90;;;;;;5073155;28;21056;-67
2022/02/07 00:31:34;;;;;;;10.73;1.87;;;5.00;99.90;;;;;;5073373;28;20449;-67
2022/02/07 00:34:01;;;;;;;7.60;1.83;;;5.00;99.90;;;;;;5073000;28;21015;-67
2022/02/07 00:36:29;;;;;;;8.60;2.77;;;5.00;99.90;;;;;;5073340;28;20453;-67
2022/02/07 00:39:01;;;;;;;11.50;1.90;;;5.00;99.90;;;;;;5072933;28;20931;-67
2022/02/07 00:41:36;;;;;;;7.90;2.17;;;5.00;99.90;;;;;;5073263;28;20437;-67
2022/02/07 00:44:11;;;;;;;9.77;2.73;;;5.00;99.90;;;;;;5073247;28;20891;-67
2022/02/07 00:46:47;;;;;;;6.70;2.00;;;5.00;99.90;;;;;;5073206;28;20516;-67
2022/02/07 00:49:14;;;;;;;8.80;1.70;;;4.90;99.90;;;;;;5072777;28;20467;-68
2022/02/07 00:51:40;;;;;;;5.30;1.37;;;4.90;99.90;;;;;;5073200;28;20456;-68
2022/02/07 00:54:07;;;;;;;8.80;1.53;;;5.00;99.90;;;;;;5073054;28;20527;-68
2022/02/07 00:56:34;;;;;;;8.13;1.93;;;5.00;99.90;;;;;;5073132;28;20456;-68
2022/02/07 00:59:01;;;;;;;6.50;2.10;;;5.00;99.90;;;;;;5072809;28;20939;-68
2022/02/07 01:01:28;;;;;;;8.00;2.07;;;5.00;99.90;;;;;;5073181;28;20467;-68
2022/02/07 01:03:56;;;;;;;4.40;1.40;;;5.00;99.90;;;;;;5073009;28;20464;-67
2022/02/07 01:06:23;;;;;;;14.23;3.07;;;4.90;99.90;;;;;;5073095;28;20449;-67
2022/02/07 01:09:02;;;;;;;5.47;1.50;;;4.90;99.90;;;;;;5072989;28;20440;-67
2022/02/07 01:11:45;;;;;;;8.97;2.40;;;4.80;99.90;;;;;;5076484;28;20493;-67
2022/02/07 01:14:17;;;;;;;8.47;2.50;;;4.80;99.90;;;;;;5076763;28;20472;-67
2022/02/07 01:17:14;;;;;;;6.00;1.90;;;4.70;99.90;;;;;;5076508;28;20538;-67
2022/02/07 01:22:45;;;;;;;15.57;2.47;;;4.70;99.90;;;;;;5076391;28;20455;-67
2022/02/07 01:50:20;;;;;;;14.57;2.30;;;4.60;99.90;;;;;;5058589;28;20530;-67
2022/02/07 01:52:59;;;;;;;9.23;2.70;;;4.60;99.90;;;;;;5076165;28;20537;-67
2022/02/07 01:55:32;;;;;;;15.00;2.23;;;4.60;99.90;;;;;;5076174;28;20440;-67
2022/02/07 01:58:00;;;;;;;6.10;1.83;;;4.60;99.90;;;;;;5076048;28;20480;-67
2022/02/07 02:00:27;;;;;;;6.43;2.13;;;4.70;99.90;;;;;;5076068;28;20478;-67
2022/02/07 02:02:54;;;;;;;8.90;1.60;;;4.70;99.90;;;;;;5075861;28;20472;-67
2022/02/07 02:05:21;;;;;;;6.70;1.80;;;4.70;99.90;;;;;;5075573;28;20940;-67
2022/02/07 02:07:50;;;;;;;15.40;2.73;;;4.80;99.90;;;;;;5075866;28;20452;-66
2022/02/07 02:10:17;;;;;;;8.47;2.10;;;4.80;99.90;;;;;;5075709;28;20494;-67
2022/02/07 02:12:54;;;;;;;8.97;2.23;;;4.70;99.90;;;;;;5075727;28;20464;-68
2022/02/07 02:15:31;;;;;;;13.83;2.50;;;4.80;99.90;;;;;;5075590;28;20456;-67
2022/02/07 02:21:44;;;;;;;7.03;2.07;;;4.70;99.90;;;;;;5057933;28;20428;-68
2022/02/07 02:37:46;;;;;;;6.23;2.00;;;4.60;99.90;;;;;;5075083;28;20428;-67
2022/02/07 02:45:44;;;;;;;6.80;1.97;;;4.40;99.90;;;;;;5075236;28;20536;-67
2022/02/07 02:48:17;;;;;;;7.53;1.90;;;4.30;99.90;;;;;;5075141;28;20448;-67
2022/02/07 02:50:47;;;;;;;5.30;1.53;;;4.20;99.90;;;;;;5074681;28;20555;-67
2022/02/07 02:53:16;;;;;;;8.90;1.50;;;4.20;99.90;;;;;;5075014;28;20491;-67
2022/02/07 02:55:45;;;;;;;4.57;1.70;;;4.10;99.90;;;;;;5074959;28;20456;-67
2022/02/07 02:58:14;;;;;;;5.37;1.40;;;4.10;99.90;;;;;;5074872;28;20448;-67
2022/02/07 03:00:42;;;;;;;11.13;1.63;;;4.00;99.90;;;;;;5074804;28;20445;-67
2022/02/07 03:03:09;;;;;;;3.13;1.80;;;4.00;99.90;;;;;;5074692;28;20473;-67
2022/02/07 03:05:36;;;;;;;12.73;2.00;;;4.00;99.90;;;;;;5074717;28;20814;-67
2022/02/07 03:08:02;;;;;;;4.30;1.30;;;4.10;99.90;;;;;;5074761;28;20467;-67
2022/02/07 03:10:41;;;;;;;6.57;1.20;;;4.10;99.90;;;;;;5074586;28;20476;-67
2022/02/07 03:13:13;;;;;;;6.90;1.57;;;4.00;99.90;;;;;;5074555;28;20563;-67
2022/02/07 03:18:26;;;;;;;5.93;1.40;;;4.00;99.90;;;;;;5074325;28;20404;-67
2022/02/07 03:20:53;;;;;;;7.83;1.27;;;4.00;99.90;;;;;;5074565;28;20441;-67
2022/02/07 03:23:21;;;;;;;6.97;1.30;;;4.00;99.90;;;;;;5074360;28;20464;-67
2022/02/07 03:25:48;;;;;;;6.53;1.10;;;4.10;99.90;;;;;;5074348;28;20452;-67
2022/02/07 03:28:17;;;;;;;7.10;1.20;;;4.10;99.90;;;;;;5074289;28;20444;-67
2022/02/07 03:30:44;;;;;;;9.63;1.50;;;4.10;99.90;;;;;;5074216;28;20484;-67
2022/02/07 03:33:11;;;;;;;12.03;1.40;;;4.10;99.90;;;;;;5073325;28;20472;-67
2022/02/07 03:35:38;;;;;;;4.10;1.27;;;4.10;99.90;;;;;;5074037;28;20453;-66
2022/02/07 03:38:06;;;;;;;6.93;1.60;;;4.00;99.90;;;;;;5074201;28;20449;-66
2022/02/07 03:40:33;;;;;;;3.07;1.03;;;4.00;99.90;;;;;;5073886;28;20429;-67
2022/02/07 03:43:00;;;;;;;7.73;1.43;;;4.10;99.90;;;;;;5073888;28;20452;-67
2022/02/07 03:45:28;;;;;;;6.17;1.40;;;4.10;99.90;;;;;;5074101;28;20494;-67
2022/02/07 03:47:55;;;;;;;9.03;1.20;;;4.10;99.90;;;;;;5074214;28;20445;-66
2022/02/07 03:50:22;;;;;;;9.83;1.50;;;4.10;99.90;;;;;;5074027;28;20487;-66
2022/02/07 03:52:50;;;;;;;12.50;1.50;;;4.10;99.90;;;;;;5074258;28;20468;-66
2022/02/07 03:55:17;;;;;;;14.83;1.80;;;4.00;99.90;;;;;;5074273;28;20455;-66
2022/02/07 03:57:44;;;;;;;4.70;1.43;;;4.00;99.90;;;;;;5073843;28;20448;-66
2022/02/07 04:00:12;;;;;;;6.00;1.23;;;4.00;99.90;;;;;;5073889;28;20448;-66
2022/02/07 04:02:43;;;;;;;4.53;1.20;;;4.00;99.90;;;;;;5073713;28;20468;-66
2022/02/07 04:05:35;;;;;;;9.87;1.90;;;4.00;99.90;;;;;;5073422;28;20425;-66
2022/02/07 04:08:03;;;;;;;6.77;1.10;;;4.00;99.90;;;;;;5073691;28;20463;-66
2022/02/07 04:10:36;;;;;;;5.07;1.20;;;4.10;99.90;;;;;;5073240;28;21094;-66
2022/02/07 04:13:05;;;;;;;5.93;1.50;;;4.10;99.90;;;;;;5073621;28;20508;-67
2022/02/07 04:15:32;;;;;;;10.10;2.07;;;4.10;99.90;;;;;;5073250;28;20496;-66
2022/02/07 04:18:03;;;;;;;7.17;1.83;;;4.10;99.90;;;;;;5073193;28;20822;-66
2022/02/07 04:20:30;;;;;;;10.47;2.50;;;4.10;99.90;;;;;;5073238;28;20888;-66
2022/02/07 04:22:57;;;;;;;15.60;2.83;;;4.10;99.90;;;;;;5073446;28;20507;-66
2022/02/07 04:25:24;;;;;;;10.67;2.67;;;4.20;99.90;;;;;;5073400;28;20453;-66
2022/02/07 04:27:51;;;;;;;9.00;1.90;;;4.20;99.90;;;;;;5073406;28;20456;-66
2022/02/07 04:30:17;;;;;;;12.47;1.83;;;4.20;99.90;;;;;;5073014;28;20476;-66
2022/02/07 04:32:44;;;;;;;11.90;2.47;;;4.20;99.90;;;;;;5073054;28;20477;-67
2022/02/07 04:35:12;;;;;;;9.03;1.83;;;4.20;99.90;;;;;;5073327;28;20447;-66
2022/02/07 04:37:39;;;;;;;10.13;2.93;;;4.20;99.90;;;;;;5073344;28;20445;-66
2022/02/07 04:40:07;;;;;;;5.70;2.90;;;4.20;99.90;;;;;;5073007;28;20440;-67
2022/02/07 04:42:34;;;;;;;16.53;2.27;;;4.10;99.90;;;;;;5073223;28;20486;-67
2022/02/07 04:45:18;;;;;;;4.67;1.20;;;4.20;99.90;;;;;;5074484;28;20444;-66
2022/02/07 04:48:00;;;;;;;13.83;2.00;;;4.10;99.90;;;;;;5077520;28;20432;-66
2022/02/07 04:50:37;;;;;;;14.43;3.17;;;4.10;99.90;;;;;;5077344;28;20464;-66
2022/02/07 04:53:16;;;;;;;8.13;1.87;;;4.10;99.90;;;;;;5077974;28;20562;-67
2022/02/07 04:55:48;;;;;;;8.93;1.77;;;4.10;99.90;;;;;;5077326;28;20812;-66
2022/02/07 04:58:28;;;;;;;6.77;2.10;;;4.00;99.90;;;;;;5077443;28;20428;-66
2022/02/07 05:01:08;;;;;;;7.20;2.67;;;4.10;99.90;;;;;;5076958;28;20790;-67
2022/02/07 05:03:41;;;;;;;6.97;1.80;;;4.00;99.90;;;;;;5076890;28;20468;-66
2022/02/07 05:14:22;;;;;;;11.17;1.73;;;4.10;99.90;;;;;;5076801;28;20816;-66
2022/02/07 05:16:50;;;;;;;5.87;1.87;;;4.10;99.90;;;;;;5077067;28;20516;-66
2022/02/07 05:19:17;;;;;;;11.07;1.97;;;4.10;99.90;;;;;;5076938;28;20481;-66
2022/02/07 05:21:45;;;;;;;8.23;1.90;;;4.10;99.90;;;;;;5076669;28;20927;-66
2022/02/07 05:24:11;;;;;;;9.23;2.13;;;4.20;99.90;;;;;;5076872;28;20465;-66
2022/02/07 05:26:38;;;;;;;11.60;2.67;;;4.20;99.90;;;;;;5078064;28;20444;-66
2022/02/07 05:29:06;;;;;;;9.87;2.53;;;4.20;99.90;;;;;;5076561;28;20757;-66
2022/02/07 05:31:33;;;;;;;6.83;2.07;;;4.20;99.90;;;;;;5076997;28;20519;-66
2022/02/07 05:34:00;;;;;;;9.47;2.40;;;4.20;99.90;;;;;;5076792;28;20476;-66
2022/02/07 05:36:27;;;;;;;14.30;2.40;;;4.20;99.90;;;;;;5076958;28;20486;-66
2022/02/07 05:38:59;;;;;;;9.00;2.43;;;4.40;99.90;;;;;;5076627;28;20448;-67
2022/02/07 05:41:26;;;;;;;14.93;2.50;;;4.30;99.90;;;;;;5076556;28;20425;-66
2022/02/07 05:43:53;;;;;;;8.53;2.50;;;4.40;99.90;;;;;;5075936;28;20468;-66
2022/02/07 05:46:20;;;;;;;8.53;2.10;;;4.40;99.90;;;;;;5075999;28;20447;-66
2022/02/07 05:48:47;;;;;;;9.30;2.53;;;4.50;99.90;;;;;;5076152;28;20475;-66
2022/02/07 05:51:14;;;;;;;14.50;2.83;;;4.60;99.90;;;;;;5076057;28;20507;-66
2022/02/07 05:53:41;;;;;;;14.33;2.40;;;4.60;99.90;;;;;;5075629;28;20464;-66
2022/02/07 05:56:09;;;;;;;11.40;2.93;;;4.50;99.90;;;;;;5075226;28;20850;-66
2022/02/07 05:58:36;;;;;;;9.20;2.00;;;4.60;99.90;;;;;;5075609;28;20432;-66
2022/02/07 06:01:03;;;;;;;18.60;2.47;;;4.70;99.90;;;;;;5076022;28;20426;-66
2022/02/07 06:03:30;;;;;;;21.40;3.67;;;4.60;99.90;;;;;;5075937;28;20467;-66
2022/02/07 06:05:57;;;;;;;16.57;5.43;;;4.70;99.90;;;;;;5075929;28;20535;-72
2022/02/07 06:08:23;;;;;;;14.20;2.90;;;4.70;99.90;;;;;;5075944;28;20440;-66
2022/02/07 06:10:50;;;;;;;17.50;3.00;;;4.70;99.90;;;;;;5075877;28;20480;-66
2022/02/07 06:13:20;;;;;;;9.80;2.43;;;4.70;99.90;;;;;;5075751;28;20464;-66
2022/02/07 06:15:47;;;;;;;9.63;2.87;;;4.70;99.90;;;;;;5075343;28;20464;-66
2022/02/07 06:18:17;;;;;;;11.30;3.30;;;4.70;99.90;;;;;;5075710;28;20448;-66
2022/02/07 06:20:43;;;;;;;11.77;2.40;;;4.60;99.90;;;;;;5075718;28;20495;-66
2022/02/07 06:23:10;;;;;;;20.87;4.73;;;4.70;99.90;;;;;;5075207;28;20464;-66
2022/02/07 06:25:37;;;;;;;12.37;2.60;;;4.70;99.90;;;;;;5075581;28;20453;-66
2022/02/07 06:28:04;;;;;;;11.80;2.43;;;4.50;99.90;;;;;;5075154;28;20453;-66
2022/02/07 06:30:32;;;;;;;14.50;2.20;;;4.60;99.90;;;;;;5075373;28;20451;-66
2022/02/07 06:32:59;;;;;;;11.80;2.73;;;4.60;99.90;;;;;;5075025;28;20473;-66
2022/02/07 06:35:26;;;;;;;9.50;3.03;;;4.60;99.90;;;;;;5075326;28;20448;-66
2022/02/07 06:37:54;;;;;;;19.50;2.93;;;4.60;99.90;;;;;;5075340;28;20456;-66
2022/02/07 06:40:21;;;;;;;14.90;2.40;;;4.60;99.90;;;;;;5075018;28;20920;-66
2022/02/07 06:42:48;;;;;;;12.03;3.00;;;4.60;99.90;;;;;;5075247;28;20464;-66
2022/02/07 06:45:14;;;;;;;14.33;4.47;;;4.60;99.90;;;;;;5075171;28;20449;-66
2022/02/07 06:47:43;;;;;;;13.33;2.57;;;4.70;99.90;;;;;;5075115;28;20440;-66
2022/02/07 06:50:10;;;;;;;17.80;2.60;;;4.70;99.90;;;;;;5074817;28;20471;-67
2022/02/07 06:52:37;;;;;;;12.67;2.70;;;4.70;99.90;;;;;;5074924;28;20506;-66
2022/02/07 06:55:04;;;;;;;11.50;3.03;;;4.60;99.90;;;;;;5075034;28;20444;-66
2022/02/07 06:57:32;;;;;;;14.23;2.70;;;4.70;99.90;;;;;;5074952;28;20448;-66
2022/02/07 07:00:02;;;;;;;13.63;2.27;;;4.60;99.90;;;;;;5074896;28;20627;-66
2022/02/07 07:02:29;;;;;;;16.97;2.97;;;4.60;99.90;;;;;;5074809;28;20469;-66
2022/02/07 07:04:58;;;;;;;18.23;3.27;;;4.60;99.90;;;;;;5074784;28;20448;-66
2022/02/07 07:07:25;;;;;;;9.53;2.07;;;4.70;99.90;;;;;;5074470;28;20451;-66
2022/02/07 07:09:54;;;;;;;12.13;3.70;;;4.60;99.90;;;;;;5074689;28;20452;-66
2022/02/07 07:12:20;;;;;;;16.13;2.13;;;4.60;99.90;;;;;;5074477;28;20854;-66
2022/02/07 07:14:50;;;;;;;12.73;2.47;;;4.70;99.90;;;;;;5074418;28;20456;-66
2022/02/07 07:17:17;;;;;;;12.70;2.37;;;4.80;99.90;;;;;;5074532;28;20436;-66
2022/02/07 07:19:44;;;;;;;12.87;2.30;;;4.80;99.90;;;;;;5074176;28;20820;-66
2022/02/07 07:22:14;;;;;;;8.90;2.37;;;4.70;99.90;;;;;;5074118;28;20440;-66
2022/02/07 07:24:42;;;;;;;7.83;2.60;;;4.70;99.90;;;;;;5074428;28;20440;-66
2022/02/07 07:27:09;;;;;;;19.03;2.80;;;4.70;99.90;;;;;;5074372;28;20440;-66
2022/02/07 07:29:39;;;;;;;15.53;2.80;;;4.70;99.90;;;;;;5074533;28;20857;-66
2022/02/07 07:32:08;;;;;;;17.43;2.73;;;4.70;99.90;;;;;;5074140;28;20468;-67
2022/02/07 07:34:36;;;;;;;18.07;3.10;;;4.70;99.90;;;;;;5074221;28;20452;-66
2022/02/07 07:37:03;;;;;;;10.43;2.70;;;4.70;99.90;;;;;;5074104;28;20448;-66
2022/02/07 07:39:31;;;;;;;6.20;2.67;;;4.70;99.90;;;;;;5074079;28;20445;-66
2022/02/07 07:41:58;;;;;;;14.80;2.70;;;4.80;99.90;;;;;;5073936;28;20444;-67
2022/02/07 07:44:30;;;;;;;14.70;2.67;;;4.70;99.90;;;;;;5074020;28;20456;-66
2022/02/07 07:47:04;;;;;;;15.47;2.50;;;4.70;99.90;;;;;;5074020;28;20436;-66
2022/02/07 07:49:38;;;;;;;21.37;2.70;;;4.70;99.90;;;;;;5073982;28;20777;-66
2022/02/07 07:52:10;;;;;;;12.37;3.37;;;4.70;99.90;;;;;;5073778;28;20465;-67
2022/02/07 07:54:49;;;;;;;11.57;2.77;;;4.70;99.90;;;;;;5073903;28;20842;-66
2022/02/07 08:02:46;;;;;;;7.50;2.07;;;4.70;99.90;;;;;;5073650;28;20452;-66
2022/02/07 08:05:22;;;;;;;10.07;3.03;;;4.70;99.90;;;;;;5073778;28;20451;-66
2022/02/07 08:07:53;;;;;;;12.30;3.17;;;4.80;99.90;;;;;;5073718;28;20818;-66
2022/02/07 08:10:43;;;;;;;26.53;3.70;;;4.80;99.90;;;;;;5073734;28;20444;-66
2022/02/07 08:13:16;;;;;;;11.47;3.83;;;4.90;99.90;;;;;;5073461;28;20546;-69
2022/02/07 08:15:43;;;;;;;10.67;2.50;;;4.90;99.90;;;;;;5073274;28;20457;-66
2022/02/07 08:18:10;;;;;;;12.43;2.73;;;5.00;99.90;;;;;;5073538;28;20477;-66
2022/02/07 08:20:36;;;;;;;12.07;2.50;;;5.00;99.90;;;;;;5072926;28;20433;-65
2022/02/07 08:23:04;;;;;;;9.30;3.00;;;5.00;99.90;;;;;;5073439;28;20468;-66
2022/02/07 08:25:33;;;;;;;14.63;4.00;;;5.00;99.90;;;;;;5073276;28;20451;-66
2022/02/07 08:28:00;;;;;;;11.07;3.10;;;5.10;99.90;;;;;;5073894;28;20455;-66
2022/02/07 08:30:27;;;;;;;14.30;3.23;;;5.10;99.90;;;;;;5073701;28;20545;-67
2022/02/07 08:32:54;;;;;;;10.53;3.17;;;5.10;99.90;;;;;;5073536;28;20492;-66
2022/02/07 08:35:21;;;;;;;10.83;2.33;;;5.10;99.90;;;;;;5073272;28;20484;-66
2022/02/07 08:37:49;;;;;;;10.73;2.60;;;5.10;99.90;;;;;;5073303;28;20449;-66
2022/02/07 08:40:16;;;;;;;9.33;2.93;;;5.10;99.90;;;;;;5073278;28;20451;-66
2022/02/07 08:42:44;;;;;;;17.73;3.17;;;5.00;99.90;;;;;;5073242;28;20488;-66
2022/02/07 08:45:12;;;;;;;11.47;2.37;;;5.00;99.90;;;;;;5073311;28;20448;-66
2022/02/07 08:47:39;;;;;;;15.77;4.07;;;5.10;99.90;;;;;;5073939;28;20514;-66
2022/02/07 08:50:07;;;;;;;22.83;3.90;;;5.10;99.90;;;;;;5073360;28;20792;-66
2022/02/07 08:52:34;;;;;;;15.37;3.67;;;5.10;99.90;;;;;;5073020;28;20480;-66
2022/02/07 08:55:03;;;;;;;13.23;3.40;;;5.10;99.90;;;;;;5072950;28;20904;-66
2022/02/07 08:57:34;;;;;;;14.30;3.57;;;5.10;99.90;;;;;;5073166;28;20452;-66
2022/02/07 09:00:14;;;;;;;9.50;2.30;;;5.20;99.90;;;;;;5073261;28;20437;-66
2022/02/07 09:03:08;;;;;;;21.50;3.10;;;5.30;99.90;;;;;;5073151;28;20564;-66
2022/02/07 09:05:45;;;;;;;17.50;3.03;;;5.40;99.90;;;;;;5072819;28;20502;-66
2022/02/07 09:08:25;;;;;;;9.67;3.20;;;5.50;99.90;;;;;;5073190;28;20433;-66
2022/02/07 09:10:54;;;;;;;16.47;3.90;;;5.60;99.90;;;;;;5072718;28;20437;-66
2022/02/07 09:13:28;;;;;;;14.07;3.40;;;5.70;99.90;;;;;;5072917;28;20527;-66
2022/02/07 09:16:15;;;;;;;13.23;3.07;;;5.90;99.90;;;;;;5072561;28;20475;-66
2022/02/07 09:18:44;;;;;;;15.40;3.63;;;6.00;99.90;;;;;;5073835;28;20783;-66
2022/02/07 09:21:12;;;;;;;9.90;2.47;;;6.10;99.90;;;;;;5073011;28;20812;-66
2022/02/07 09:23:40;;;;;;;12.90;4.90;;;6.20;99.90;;;;;;5072879;28;20496;-66
2022/02/07 09:26:08;;;;;;;15.13;2.77;;;6.20;99.90;;;;;;5072623;28;20534;-66
2022/02/07 09:28:35;;;;;;;17.87;3.03;;;6.30;99.90;;;;;;5072846;28;20449;-66
2022/02/07 09:31:03;;;;;;;16.97;3.13;;;6.40;99.90;;;;;;5073546;28;20819;-66
2022/02/07 09:33:30;;;;;;;12.20;3.30;;;6.40;99.90;;;;;;5076437;28;20488;-66
2022/02/07 09:35:57;;;;;;;13.90;3.40;;;6.40;99.90;;;;;;5076606;28;20432;-66
2022/02/07 09:38:24;;;;;;;16.37;5.17;;;6.40;99.90;;;;;;5076436;28;20451;-66
2022/02/07 09:40:53;;;;;;;10.30;2.93;;;6.40;99.90;;;;;;5076387;28;20452;-66
2022/02/07 09:43:21;;;;;;;13.50;3.50;;;6.40;99.90;;;;;;5076341;28;20464;-66
2022/02/07 09:45:49;;;;;;;15.20;3.50;;;6.40;99.90;;;;;;5076058;28;20837;-66
2022/02/07 09:48:19;;;;;;;14.50;2.90;;;6.40;99.90;;;;;;5076149;28;20456;-66
2022/02/07 09:50:47;;;;;;;15.03;3.00;;;6.40;99.90;;;;;;5075924;28;20449;-66
2022/02/07 09:53:14;;;;;;;10.57;2.80;;;6.50;99.90;;;;;;5076033;28;20499;-66
2022/02/07 09:55:40;;;;;;;16.10;2.97;;;6.60;99.90;;;;;;5076144;28;20440;-66
2022/02/07 09:58:07;;;;;;;12.90;4.47;;;6.60;99.90;;;;;;5076144;28;20472;-66
2022/02/07 10:00:36;;;;;;;7.70;2.87;;;6.60;99.90;;;;;;5076076;28;20449;-66
2022/02/07 10:03:09;;;;;;;15.10;3.27;;;6.70;99.90;;;;;;5076764;28;20479;-66
2022/02/07 10:05:47;;;;;;;20.83;4.60;;;6.80;99.90;;;;;;5075981;28;20432;-66
2022/02/07 10:08:20;;;;;;;25.20;4.10;;;6.80;99.90;;;;;;5075861;28;20440;-66
2022/02/07 10:11:05;;;;;;;14.17;2.93;;;6.90;99.90;;;;;;5075746;28;20472;-66
2022/02/07 10:13:44;;;;;;;10.13;3.43;;;7.10;99.90;;;;;;5075308;28;20986;-66
2022/02/07 10:16:28;;;;;;;17.20;3.90;;;7.10;99.90;;;;;;5075393;28;20465;-66
2022/02/07 10:19:13;;;;;;;14.30;3.53;;;7.20;99.90;;;;;;5075708;28;20440;-66
2022/02/07 10:38:37;;;;;;;11.87;3.80;;;7.40;99.90;;;;;;5071322;28;20479;-66
2022/02/07 10:41:22;;;;;;;13.70;3.97;;;7.40;99.90;;;;;;5075310;28;20461;-66
2022/02/07 10:44:03;;;;;;;12.00;3.17;;;7.40;99.90;;;;;;5074603;28;20563;-66
2022/02/07 10:46:33;;;;;;;15.13;3.77;;;7.40;99.90;;;;;;5075435;28;20482;-67
2022/02/07 10:49:06;;;;;;;10.87;3.80;;;7.40;99.90;;;;;;5075168;28;20441;-66
2022/02/07 10:51:33;;;;;;;14.13;4.57;;;7.50;99.90;;;;;;5075147;28;20425;-67
2022/02/07 10:54:05;;;;;;;18.20;4.17;;;7.60;99.90;;;;;;5074999;28;20819;-66
2022/02/07 10:56:37;;;;;;;21.23;4.33;;;7.60;99.90;;;;;;5075012;28;20433;-66
2022/02/07 10:59:07;;;;;;;16.17;4.10;;;7.60;99.90;;;;;;5074681;28;20527;-66
2022/02/07 11:01:54;;;;;;;21.03;4.70;;;7.70;99.90;;;;;;5075008;28;20429;-66
2022/02/07 11:04:26;;;;;;;10.13;3.10;;;7.80;99.90;;;;;;5074950;28;20468;-67
2022/02/07 11:07:00;;;;;;;11.67;4.13;;;7.90;99.90;;;;;;5074911;28;20440;-66
2022/02/07 11:09:36;;;;;;;9.50;3.57;;;8.00;99.90;;;;;;5074866;28;20533;-66
2022/02/07 11:12:43;;;;;;;12.50;4.80;;;8.00;99.90;;;;;;5074618;28;20467;-67
2022/02/07 11:15:21;;;;;;;10.23;4.17;;;8.00;99.90;;;;;;5074408;28;20464;-66
2022/02/07 11:18:07;;;;;;;12.23;4.60;;;8.10;99.90;;;;;;5075015;28;20531;-66
2022/02/07 11:23:25;;;;;;;7.67;3.90;;;8.40;99.90;;;;;;5071552;28;20467;-66
2022/02/07 11:25:59;;;;;;;13.83;3.60;;;8.50;99.90;;;;;;5074348;28;20801;-68
2022/02/07 11:28:27;;;;;;;17.67;3.87;;;8.60;99.90;;;;;;5074587;28;20433;-66
2022/02/07 11:30:56;;;;;;;10.77;3.63;;;8.70;99.90;;;;;;5074286;28;20448;-66
2022/02/07 11:33:48;;;;;;;13.90;3.50;;;8.60;99.90;;;;;;5074032;28;20484;-66
2022/02/07 11:36:26;;;;;;;12.27;3.80;;;8.50;99.90;;;;;;5073795;28;20900;-66
2022/02/07 11:38:58;;;;;;;11.83;3.33;;;8.40;99.90;;;;;;5074135;28;20848;-66
2022/02/07 11:41:26;;;;;;;14.97;4.20;;;8.40;99.90;;;;;;5074035;28;20444;-66
2022/02/07 11:43:54;;;;;;;16.87;3.20;;;8.30;99.90;;;;;;5073953;28;20465;-66
2022/02/07 11:46:22;;;;;;;15.37;3.53;;;8.10;99.90;;;;;;5073932;28;20455;-66
2022/02/07 11:48:51;;;;;;;9.87;2.80;;;8.00;99.90;;;;;;5073867;28;20452;-66
2022/02/07 11:51:20;;;;;;;14.10;3.20;;;7.90;99.90;;;;;;5074579;28;20576;-66
2022/02/07 11:53:51;;;;;;;15.00;3.77;;;7.80;99.90;;;;;;5073126;28;20484;-66
2022/02/07 11:56:34;;;;;;;12.13;3.60;;;7.70;99.90;;;;;;5073370;28;20441;-66
2022/02/07 11:59:16;;;;;;;11.73;3.23;;;7.60;99.90;;;;;;5073883;28;20473;-66
2022/02/07 12:01:53;;;;;;;12.77;3.87;;;7.80;99.90;;;;;;5073798;28;20486;-66
2022/02/07 12:04:29;;;;;;;15.00;3.33;;;7.90;99.90;;;;;;5073698;28;20472;-66
2022/02/07 12:07:08;;;;;;;12.27;3.37;;;8.20;99.90;;;;;;5073351;28;20440;-66
2022/02/07 12:09:35;;;;;;;18.37;4.23;;;8.20;99.90;;;;;;5073721;28;20534;-66
2022/02/07 12:12:04;;;;;;;7.83;3.77;;;8.10;99.90;;;;;;5073471;28;20544;-67
2022/02/07 12:14:32;;;;;;;16.23;5.07;;;7.90;99.90;;;;;;5073328;28;20444;-66
2022/02/07 12:16:59;;;;;;;15.83;4.97;;;7.90;99.90;;;;;;5073434;28;20904;-66
2022/02/07 12:19:37;;;;;;;7.07;2.93;;;8.00;99.90;;;;;;5073540;28;20456;-66
2022/02/07 12:22:15;;;;;;;19.53;3.93;;;8.10;99.90;;;;;;5073429;28;20432;-66
2022/02/07 12:24:56;;;;;;;13.50;3.83;;;8.40;99.90;;;;;;5073434;28;20456;-66
2022/02/07 12:27:25;;;;;;;17.50;3.47;;;8.70;99.90;;;;;;5073252;28;20852;-66
2022/02/07 12:30:18;;;;;;;10.20;3.00;;;9.20;99.90;;;;;;5073498;28;20551;-66
2022/02/07 12:32:45;;;;;;;15.33;3.33;;;9.60;96.60;;;;;;5073353;28;20888;-67
2022/02/07 12:35:12;;;;;;;6.20;2.70;;;9.50;96.40;;;;;;5073414;28;20449;-66
2022/02/07 12:37:41;;;;;;;8.30;2.77;;;9.20;96.30;;;;;;5073380;28;20483;-66
2022/02/07 12:40:10;;;;;;;8.50;2.70;;;9.00;96.40;;;;;;5073393;28;20440;-66
2022/02/07 12:42:40;;;;;;;10.90;2.70;;;8.80;96.50;;;;;;5073518;28;20468;-67
2022/02/07 12:45:08;;;;;;;9.87;2.80;;;8.70;95.90;;;;;;5073978;28;20444;-66
2022/02/07 12:47:37;;;;;;;12.30;3.00;;;8.90;96.00;;;;;;5073173;28;20486;-66
2022/02/07 12:50:13;;;;;;;4.40;1.93;;;9.00;95.10;;;;;;5073229;28;20479;-66
2022/02/07 12:52:39;;;;;;;15.27;2.73;;;8.80;95.30;;;;;;5073101;28;20522;-66
2022/02/07 12:55:08;;;;;;;10.77;2.10;;;8.70;95.10;;;;;;5072741;28;20448;-66
2022/02/07 12:57:40;;;;;;;7.57;2.00;;;8.40;94.90;;;;;;5073092;28;20463;-67
2022/02/07 13:00:08;;;;;;;10.70;2.30;;;8.40;96.30;;;;;;5073090;28;20531;-67
2022/02/07 13:02:35;;;;;;;7.40;2.20;;;8.30;97.00;;;;;;5072974;28;20464;-67
2022/02/07 13:05:02;;;;;;;7.37;2.13;;;8.20;95.90;;;;;;5072990;28;20452;-67
2022/02/07 13:07:34;;;;;;;8.37;2.10;;;8.30;97.00;;;;;;5076581;28;20455;-66
2022/02/07 13:10:04;;;;;;;12.63;2.70;;;8.20;97.20;;;;;;5077078;28;20437;-67
2022/02/07 13:12:49;;;;;;;6.10;1.97;;;8.20;96.80;;;;;;5076418;28;20877;-67
2022/02/07 13:15:22;;;;;;;14.33;2.80;;;8.20;98.10;;;;;;5076618;28;20551;-66
2022/02/07 13:17:52;;;;;;;14.73;2.67;;;8.40;96.90;;;;;;5077416;28;20795;-66
2022/02/07 13:20:21;;;;;;;18.07;2.53;;;8.60;96.40;;;;;;5076429;28;20932;-66
2022/02/07 13:22:48;;;;;;;15.60;2.80;;;8.60;96.90;;;;;;5076316;28;20989;-66
2022/02/07 13:25:15;;;;;;;10.80;2.67;;;8.50;96.70;;;;;;5076372;28;20444;-66
2022/02/07 13:27:43;;;;;;;12.50;2.80;;;8.40;97.10;;;;;;5076702;28;20498;-67
2022/02/07 13:30:12;;;;;;;7.13;2.60;;;8.30;97.10;;;;;;5076545;28;20449;-66
2022/02/07 13:32:41;;;;;;;7.10;2.40;;;8.40;96.80;;;;;;5076427;28;20465;-66
2022/02/07 13:35:11;;;;;;;15.40;2.60;;;8.40;97.80;;;;;;5076477;28;20449;-66
2022/02/07 13:37:40;;;;;;;13.40;3.07;;;8.60;98.00;;;;;;5076471;28;20544;-66
2022/02/07 13:40:09;;;;;;;8.50;2.63;;;8.60;97.80;;;;;;5076377;28;20479;-66
2022/02/07 13:42:38;;;;;;;10.93;2.50;;;8.70;96.30;;;;;;5075881;28;20975;-66
2022/02/07 13:45:09;;;;;;;10.57;2.40;;;8.70;96.30;;;;;;5076242;28;20447;-66
2022/02/07 13:47:37;;;;;;;6.60;2.30;;;8.60;94.80;;;;;;5075943;28;20910;-66
2022/02/07 13:50:08;;;;;;;18.93;2.43;;;8.60;95.10;;;;;;5075940;28;20927;-66
2022/02/07 13:52:37;;;;;;;6.90;2.30;;;8.50;94.80;;;;;;5076094;28;20460;-67
2022/02/07 13:55:26;;;;;;;8.47;2.30;;;8.40;95.30;;;;;;5076224;28;20450;-66
2022/02/07 13:57:58;;;;;;;6.47;2.10;;;8.50;95.00;;;;;;5072175;28;20461;-66
2022/02/07 14:00:28;;;;;;;5.67;1.97;;;8.70;94.60;;;;;;5076129;28;20440;-66
2022/02/07 14:03:20;;;;;;;6.20;2.17;;;8.70;93.40;;;;;;5075890;28;20465;-66
2022/02/07 14:05:51;;;;;;;11.53;2.40;;;8.80;94.40;;;;;;5061279;28;20947;-66
2022/02/07 14:08:29;;;;;;;6.67;1.63;;;8.80;94.10;;;;;;5075653;28;20417;-66
2022/02/07 14:10:55;;;;;;;6.80;2.03;;;8.90;93.40;;;;;;5075853;28;20429;-66
2022/02/07 14:13:22;;;;;;;19.30;3.03;;;9.20;93.80;;;;;;5075669;28;20498;-66
2022/02/07 14:15:49;;;;;;;6.63;2.13;;;9.50;92.00;;;;;;5075362;28;20823;-66
2022/02/07 14:18:17;;;;;;;10.70;2.20;;;9.90;91.60;;;;;;5074765;28;20444;-66
2022/02/07 14:20:44;;;;;;;6.10;2.17;;;10.20;90.60;;;;;;5075430;28;20436;-66
2022/02/07 14:23:15;;;;;;;5.30;2.37;;;10.40;87.70;;;;;;5075685;28;20555;-66
2022/02/07 14:25:44;;;;;;;5.87;1.77;;;10.40;82.30;;;;;;5076466;28;20819;-66
2022/02/07 14:28:12;;;;;;;6.37;1.97;;;10.30;83.00;;;;;;5075694;28;20444;-67
2022/02/07 14:30:38;;;;;;;9.50;2.00;;;10.30;83.40;;;;;;5075581;28;20453;-66
2022/02/07 14:33:06;;;;;;;3.90;1.93;;;10.30;80.80;;;;;;5075371;28;20488;-66
2022/02/07 14:35:35;;;;;;;7.07;1.90;;;10.10;80.50;;;;;;5075511;28;20437;-66